sensor_id;sensor_type;location;lat;lon;timestamp;P1;durP1;ratioP1;P2;durP2;ratioP2
4563;SDS011;2294;51.818;8.484;2022-10-31T00:00:13;17.87;;;7.13;;
4563;SDS011;2294;51.818;8.484;2022-10-31T00:02:40;14.23;;;6.97;;
4563;SDS011;2294;51.818;8.484;2022-10-31T00:05:07;9.10;;;7.40;;
4563;SDS011;2294;51.818;8.484;2022-10-31T00:07:34;11.83;;;7.17;;
4563;SDS011;2294;51.818;8.484;2022-10-31T00:10:01;18.50;;;7.23;;
4563;SDS011;2294;51.818;8.484;2022-10-31T00:12:28;13.53;;;8.23;;
4563;SDS011;2294;51.818;8.484;2022-10-31T00:14:56;13.43;;;7.10;;
4563;SDS011;2294;51.818;8.484;2022-10-31T00:17:23;21.20;;;9.47;;
4563;SDS011;2294;51.818;8.484;2022-10-31T00:19:50;13.37;;;7.97;;
4563;SDS011;2294;51.818;8.484;2022-10-31T00:22:17;13.67;;;7.50;;
4563;SDS011;2294;51.818;8.484;2022-10-31T00:24:44;14.50;;;7.13;;
4563;SDS011;2294;51.818;8.484;2022-10-31T00:27:10;14.40;;;7.23;;
4563;SDS011;2294;51.818;8.484;2022-10-31T00:29:37;10.97;;;6.53;;
4563;SDS011;2294;51.818;8.484;2022-10-31T00:32:05;19.47;;;7.50;;
4563;SDS011;2294;51.818;8.484;2022-10-31T00:34:32;10.70;;;7.77;;
4563;SDS011;2294;51.818;8.484;2022-10-31T00:36:59;13.33;;;7.40;;
4563;SDS011;2294;51.818;8.484;2022-10-31T00:39:26;17.53;;;7.40;;
4563;SDS011;2294;51.818;8.484;2022-10-31T00:41:53;10.43;;;7.10;;
4563;SDS011;2294;51.818;8.484;2022-10-31T00:44:20;16.67;;;7.57;;
4563;SDS011;2294;51.818;8.484;2022-10-31T00:46:46;15.37;;;6.43;;
4563;SDS011;2294;51.818;8.484;2022-10-31T00:49:15;12.37;;;7.33;;
4563;SDS011;2294;51.818;8.484;2022-10-31T00:51:42;16.77;;;7.77;;
4563;SDS011;2294;51.818;8.484;2022-10-31T00:54:08;15.83;;;7.30;;
4563;SDS011;2294;51.818;8.484;2022-10-31T00:56:35;17.57;;;7.97;;
4563;SDS011;2294;51.818;8.484;2022-10-31T00:59:02;14.37;;;7.70;;
4563;SDS011;2294;51.818;8.484;2022-10-31T01:01:29;9.97;;;6.77;;
4563;SDS011;2294;51.818;8.484;2022-10-31T01:03:56;16.67;;;8.50;;
4563;SDS011;2294;51.818;8.484;2022-10-31T01:06:24;16.97;;;6.73;;
4563;SDS011;2294;51.818;8.484;2022-10-31T01:08:51;14.60;;;6.97;;
4563;SDS011;2294;51.818;8.484;2022-10-31T01:11:18;11.50;;;7.23;;
4563;SDS011;2294;51.818;8.484;2022-10-31T01:13:49;13.60;;;7.70;;
4563;SDS011;2294;51.818;8.484;2022-10-31T01:16:18;14.50;;;7.13;;
4563;SDS011;2294;51.818;8.484;2022-10-31T01:18:46;15.10;;;6.83;;
4563;SDS011;2294;51.818;8.484;2022-10-31T01:21:14;11.53;;;7.10;;
4563;SDS011;2294;51.818;8.484;2022-10-31T01:23:44;14.43;;;7.63;;
4563;SDS011;2294;51.818;8.484;2022-10-31T01:26:12;12.90;;;6.97;;
4563;SDS011;2294;51.818;8.484;2022-10-31T01:28:44;13.00;;;6.70;;
4563;SDS011;2294;51.818;8.484;2022-10-31T01:31:12;19.67;;;7.07;;
4563;SDS011;2294;51.818;8.484;2022-10-31T01:33:39;14.93;;;6.47;;
4563;SDS011;2294;51.818;8.484;2022-10-31T01:36:17;12.60;;;6.80;;
4563;SDS011;2294;51.818;8.484;2022-10-31T01:38:47;23.17;;;8.47;;
4563;SDS011;2294;51.818;8.484;2022-10-31T01:41:15;11.83;;;7.20;;
4563;SDS011;2294;51.818;8.484;2022-10-31T01:43:45;15.83;;;7.23;;
4563;SDS011;2294;51.818;8.484;2022-10-31T01:46:14;12.87;;;7.67;;
4563;SDS011;2294;51.818;8.484;2022-10-31T01:48:44;14.97;;;6.70;;
4563;SDS011;2294;51.818;8.484;2022-10-31T01:51:11;19.03;;;7.67;;
4563;SDS011;2294;51.818;8.484;2022-10-31T01:53:40;13.07;;;7.40;;
4563;SDS011;2294;51.818;8.484;2022-10-31T01:56:10;9.27;;;6.90;;
4563;SDS011;2294;51.818;8.484;2022-10-31T01:58:39;12.73;;;7.30;;
4563;SDS011;2294;51.818;8.484;2022-10-31T02:01:06;16.57;;;7.87;;
4563;SDS011;2294;51.818;8.484;2022-10-31T02:03:33;17.47;;;8.13;;
4563;SDS011;2294;51.818;8.484;2022-10-31T02:06:00;12.90;;;8.27;;
4563;SDS011;2294;51.818;8.484;2022-10-31T02:08:33;11.37;;;7.73;;
4563;SDS011;2294;51.818;8.484;2022-10-31T02:11:01;14.73;;;7.87;;
4563;SDS011;2294;51.818;8.484;2022-10-31T02:13:29;14.80;;;7.17;;
4563;SDS011;2294;51.818;8.484;2022-10-31T02:15:57;19.80;;;7.43;;
4563;SDS011;2294;51.818;8.484;2022-10-31T02:18:25;18.57;;;8.00;;
4563;SDS011;2294;51.818;8.484;2022-10-31T02:20:57;10.13;;;6.90;;
4563;SDS011;2294;51.818;8.484;2022-10-31T02:26:43;8.90;;;6.70;;
4563;SDS011;2294;51.818;8.484;2022-10-31T02:32:27;12.40;;;7.47;;
4563;SDS011;2294;51.818;8.484;2022-10-31T02:35:02;12.77;;;6.90;;
4563;SDS011;2294;51.818;8.484;2022-10-31T02:37:37;12.37;;;6.70;;
4563;SDS011;2294;51.818;8.484;2022-10-31T02:40:11;18.53;;;9.83;;
4563;SDS011;2294;51.818;8.484;2022-10-31T02:42:46;11.03;;;7.00;;
4563;SDS011;2294;51.818;8.484;2022-10-31T02:45:19;16.40;;;8.27;;
4563;SDS011;2294;51.818;8.484;2022-10-31T02:47:53;10.73;;;7.67;;
4563;SDS011;2294;51.818;8.484;2022-10-31T02:50:21;11.30;;;7.00;;
4563;SDS011;2294;51.818;8.484;2022-10-31T02:52:52;15.67;;;7.93;;
4563;SDS011;2294;51.818;8.484;2022-10-31T02:58:11;9.93;;;5.87;;
4563;SDS011;2294;51.818;8.484;2022-10-31T03:00:42;7.80;;;6.40;;
4563;SDS011;2294;51.818;8.484;2022-10-31T03:03:24;12.47;;;5.47;;
4563;SDS011;2294;51.818;8.484;2022-10-31T03:05:58;10.13;;;6.53;;
4563;SDS011;2294;51.818;8.484;2022-10-31T03:08:30;14.67;;;8.50;;
4563;SDS011;2294;51.818;8.484;2022-10-31T03:11:02;17.03;;;10.63;;
4563;SDS011;2294;51.818;8.484;2022-10-31T03:13:32;10.93;;;6.60;;
4563;SDS011;2294;51.818;8.484;2022-10-31T03:16:06;17.80;;;6.47;;
4563;SDS011;2294;51.818;8.484;2022-10-31T03:18:39;14.90;;;7.30;;
4563;SDS011;2294;51.818;8.484;2022-10-31T03:21:08;10.07;;;5.93;;
4563;SDS011;2294;51.818;8.484;2022-10-31T03:23:39;12.70;;;6.10;;
4563;SDS011;2294;51.818;8.484;2022-10-31T03:26:09;18.80;;;6.20;;
4563;SDS011;2294;51.818;8.484;2022-10-31T03:28:50;12.43;;;6.40;;
4563;SDS011;2294;51.818;8.484;2022-10-31T03:31:19;10.10;;;6.03;;
4563;SDS011;2294;51.818;8.484;2022-10-31T03:33:52;11.77;;;5.37;;
4563;SDS011;2294;51.818;8.484;2022-10-31T03:36:22;7.80;;;6.10;;
4563;SDS011;2294;51.818;8.484;2022-10-31T03:38:50;7.57;;;6.10;;
4563;SDS011;2294;51.818;8.484;2022-10-31T03:41:18;9.80;;;5.80;;
4563;SDS011;2294;51.818;8.484;2022-10-31T03:43:49;9.67;;;6.40;;
4563;SDS011;2294;51.818;8.484;2022-10-31T03:46:21;12.13;;;5.63;;
4563;SDS011;2294;51.818;8.484;2022-10-31T03:48:48;10.97;;;6.03;;
4563;SDS011;2294;51.818;8.484;2022-10-31T03:51:19;12.50;;;6.00;;
4563;SDS011;2294;51.818;8.484;2022-10-31T03:53:52;12.00;;;6.50;;
4563;SDS011;2294;51.818;8.484;2022-10-31T03:56:22;11.30;;;6.63;;
4563;SDS011;2294;51.818;8.484;2022-10-31T03:58:57;45.80;;;7.90;;
4563;SDS011;2294;51.818;8.484;2022-10-31T04:01:27;12.57;;;6.40;;
4563;SDS011;2294;51.818;8.484;2022-10-31T04:03:57;13.53;;;6.20;;
4563;SDS011;2294;51.818;8.484;2022-10-31T04:06:26;11.37;;;6.30;;
4563;SDS011;2294;51.818;8.484;2022-10-31T04:08:56;10.43;;;5.70;;
4563;SDS011;2294;51.818;8.484;2022-10-31T04:11:27;16.80;;;6.90;;
4563;SDS011;2294;51.818;8.484;2022-10-31T04:13:56;12.33;;;7.17;;
4563;SDS011;2294;51.818;8.484;2022-10-31T04:16:25;7.70;;;6.43;;
4563;SDS011;2294;51.818;8.484;2022-10-31T04:18:53;11.70;;;7.47;;
4563;SDS011;2294;51.818;8.484;2022-10-31T04:21:25;10.60;;;6.20;;
4563;SDS011;2294;51.818;8.484;2022-10-31T04:23:55;9.53;;;6.17;;
4563;SDS011;2294;51.818;8.484;2022-10-31T04:26:22;16.63;;;6.60;;
4563;SDS011;2294;51.818;8.484;2022-10-31T04:28:49;13.60;;;6.67;;
4563;SDS011;2294;51.818;8.484;2022-10-31T04:31:16;8.57;;;5.73;;
4563;SDS011;2294;51.818;8.484;2022-10-31T04:33:43;13.50;;;7.20;;
4563;SDS011;2294;51.818;8.484;2022-10-31T04:36:10;18.37;;;7.10;;
4563;SDS011;2294;51.818;8.484;2022-10-31T04:38:39;14.10;;;7.80;;
4563;SDS011;2294;51.818;8.484;2022-10-31T04:41:05;11.50;;;6.93;;
4563;SDS011;2294;51.818;8.484;2022-10-31T04:43:32;11.00;;;5.23;;
4563;SDS011;2294;51.818;8.484;2022-10-31T04:45:59;17.97;;;6.90;;
4563;SDS011;2294;51.818;8.484;2022-10-31T04:48:26;20.00;;;6.50;;
4563;SDS011;2294;51.818;8.484;2022-10-31T04:50:57;12.27;;;6.93;;
4563;SDS011;2294;51.818;8.484;2022-10-31T04:53:25;10.37;;;6.80;;
4563;SDS011;2294;51.818;8.484;2022-10-31T04:55:53;12.60;;;7.20;;
4563;SDS011;2294;51.818;8.484;2022-10-31T04:58:20;12.30;;;6.03;;
4563;SDS011;2294;51.818;8.484;2022-10-31T05:00:47;10.97;;;6.93;;
4563;SDS011;2294;51.818;8.484;2022-10-31T05:03:17;11.40;;;6.03;;
4563;SDS011;2294;51.818;8.484;2022-10-31T05:05:45;12.83;;;6.40;;
4563;SDS011;2294;51.818;8.484;2022-10-31T05:08:11;18.73;;;7.10;;
4563;SDS011;2294;51.818;8.484;2022-10-31T05:10:38;15.40;;;6.97;;
4563;SDS011;2294;51.818;8.484;2022-10-31T05:13:07;10.10;;;6.53;;
4563;SDS011;2294;51.818;8.484;2022-10-31T05:15:34;11.47;;;6.40;;
4563;SDS011;2294;51.818;8.484;2022-10-31T05:18:01;11.60;;;7.30;;
4563;SDS011;2294;51.818;8.484;2022-10-31T05:20:28;13.83;;;6.60;;
4563;SDS011;2294;51.818;8.484;2022-10-31T05:22:56;17.37;;;6.50;;
4563;SDS011;2294;51.818;8.484;2022-10-31T05:25:24;14.87;;;6.70;;
4563;SDS011;2294;51.818;8.484;2022-10-31T05:27:53;12.00;;;7.40;;
4563;SDS011;2294;51.818;8.484;2022-10-31T05:30:22;12.27;;;5.93;;
4563;SDS011;2294;51.818;8.484;2022-10-31T05:32:51;11.40;;;6.47;;
4563;SDS011;2294;51.818;8.484;2022-10-31T05:35:18;17.70;;;6.50;;
4563;SDS011;2294;51.818;8.484;2022-10-31T05:37:46;16.23;;;6.83;;
4563;SDS011;2294;51.818;8.484;2022-10-31T05:40:14;14.00;;;6.87;;
4563;SDS011;2294;51.818;8.484;2022-10-31T05:42:42;14.90;;;7.00;;
4563;SDS011;2294;51.818;8.484;2022-10-31T05:45:10;16.50;;;7.00;;
4563;SDS011;2294;51.818;8.484;2022-10-31T05:47:40;14.30;;;8.07;;
4563;SDS011;2294;51.818;8.484;2022-10-31T05:50:07;15.73;;;7.80;;
4563;SDS011;2294;51.818;8.484;2022-10-31T05:52:35;12.90;;;8.03;;
4563;SDS011;2294;51.818;8.484;2022-10-31T05:55:02;13.40;;;8.40;;
4563;SDS011;2294;51.818;8.484;2022-10-31T05:57:31;17.43;;;8.97;;
4563;SDS011;2294;51.818;8.484;2022-10-31T05:59:58;9.90;;;7.10;;
4563;SDS011;2294;51.818;8.484;2022-10-31T06:02:25;12.00;;;7.63;;
4563;SDS011;2294;51.818;8.484;2022-10-31T06:04:58;15.80;;;7.83;;
4563;SDS011;2294;51.818;8.484;2022-10-31T06:07:24;12.17;;;6.40;;
4563;SDS011;2294;51.818;8.484;2022-10-31T06:09:51;19.50;;;8.20;;
4563;SDS011;2294;51.818;8.484;2022-10-31T06:12:18;15.60;;;7.03;;
4563;SDS011;2294;51.818;8.484;2022-10-31T06:14:45;12.63;;;7.60;;
4563;SDS011;2294;51.818;8.484;2022-10-31T06:17:12;10.67;;;7.53;;
4563;SDS011;2294;51.818;8.484;2022-10-31T06:19:39;31.73;;;10.33;;
4563;SDS011;2294;51.818;8.484;2022-10-31T06:22:07;15.20;;;8.33;;
4563;SDS011;2294;51.818;8.484;2022-10-31T06:24:36;12.03;;;7.90;;
4563;SDS011;2294;51.818;8.484;2022-10-31T06:27:03;20.37;;;8.30;;
4563;SDS011;2294;51.818;8.484;2022-10-31T06:29:30;14.97;;;7.83;;
4563;SDS011;2294;51.818;8.484;2022-10-31T06:31:57;18.77;;;7.17;;
4563;SDS011;2294;51.818;8.484;2022-10-31T06:34:24;14.93;;;7.77;;
4563;SDS011;2294;51.818;8.484;2022-10-31T06:36:51;19.80;;;8.37;;
4563;SDS011;2294;51.818;8.484;2022-10-31T06:39:19;17.03;;;7.40;;
4563;SDS011;2294;51.818;8.484;2022-10-31T06:41:46;21.90;;;8.90;;
4563;SDS011;2294;51.818;8.484;2022-10-31T06:44:13;29.37;;;8.13;;
4563;SDS011;2294;51.818;8.484;2022-10-31T06:46:40;11.93;;;6.93;;
4563;SDS011;2294;51.818;8.484;2022-10-31T06:49:07;15.33;;;7.80;;
4563;SDS011;2294;51.818;8.484;2022-10-31T06:51:34;16.47;;;8.20;;
4563;SDS011;2294;51.818;8.484;2022-10-31T06:54:01;16.17;;;7.40;;
4563;SDS011;2294;51.818;8.484;2022-10-31T06:56:29;24.27;;;8.30;;
4563;SDS011;2294;51.818;8.484;2022-10-31T06:58:56;12.90;;;7.37;;
4563;SDS011;2294;51.818;8.484;2022-10-31T07:01:23;14.73;;;8.00;;
4563;SDS011;2294;51.818;8.484;2022-10-31T07:03:50;25.90;;;8.40;;
4563;SDS011;2294;51.818;8.484;2022-10-31T07:06:17;11.60;;;7.30;;
4563;SDS011;2294;51.818;8.484;2022-10-31T07:08:43;12.57;;;7.80;;
4563;SDS011;2294;51.818;8.484;2022-10-31T07:11:10;19.77;;;7.47;;
4563;SDS011;2294;51.818;8.484;2022-10-31T07:13:38;13.60;;;7.10;;
4563;SDS011;2294;51.818;8.484;2022-10-31T07:16:06;14.77;;;6.83;;
4563;SDS011;2294;51.818;8.484;2022-10-31T07:18:35;12.23;;;7.47;;
4563;SDS011;2294;51.818;8.484;2022-10-31T07:21:02;16.67;;;8.33;;
4563;SDS011;2294;51.818;8.484;2022-10-31T07:23:29;13.57;;;8.90;;
4563;SDS011;2294;51.818;8.484;2022-10-31T07:25:56;14.70;;;9.07;;
4563;SDS011;2294;51.818;8.484;2022-10-31T07:28:24;24.77;;;10.40;;
4563;SDS011;2294;51.818;8.484;2022-10-31T07:30:53;16.93;;;10.17;;
4563;SDS011;2294;51.818;8.484;2022-10-31T07:33:21;20.13;;;9.40;;
4563;SDS011;2294;51.818;8.484;2022-10-31T07:35:50;24.30;;;9.53;;
4563;SDS011;2294;51.818;8.484;2022-10-31T07:38:17;17.57;;;9.10;;
4563;SDS011;2294;51.818;8.484;2022-10-31T07:40:48;14.20;;;8.93;;
4563;SDS011;2294;51.818;8.484;2022-10-31T07:43:17;15.67;;;10.10;;
4563;SDS011;2294;51.818;8.484;2022-10-31T07:45:48;20.43;;;11.60;;
4563;SDS011;2294;51.818;8.484;2022-10-31T07:48:18;21.03;;;10.97;;
4563;SDS011;2294;51.818;8.484;2022-10-31T07:50:45;23.30;;;11.33;;
4563;SDS011;2294;51.818;8.484;2022-10-31T07:53:13;25.00;;;11.27;;
4563;SDS011;2294;51.818;8.484;2022-10-31T07:55:40;29.27;;;11.07;;
4563;SDS011;2294;51.818;8.484;2022-10-31T07:58:08;26.60;;;11.20;;
4563;SDS011;2294;51.818;8.484;2022-10-31T08:04:00;30.47;;;13.17;;
4563;SDS011;2294;51.818;8.484;2022-10-31T08:06:27;29.37;;;13.17;;
4563;SDS011;2294;51.818;8.484;2022-10-31T08:08:54;27.10;;;15.17;;
4563;SDS011;2294;51.818;8.484;2022-10-31T08:11:20;23.87;;;15.07;;
4563;SDS011;2294;51.818;8.484;2022-10-31T08:13:47;31.37;;;13.97;;
4563;SDS011;2294;51.818;8.484;2022-10-31T08:16:14;31.83;;;16.30;;
4563;SDS011;2294;51.818;8.484;2022-10-31T08:18:41;32.80;;;16.27;;
4563;SDS011;2294;51.818;8.484;2022-10-31T08:21:09;34.77;;;16.03;;
4563;SDS011;2294;51.818;8.484;2022-10-31T08:23:36;34.13;;;15.90;;
4563;SDS011;2294;51.818;8.484;2022-10-31T08:26:03;32.40;;;16.63;;
4563;SDS011;2294;51.818;8.484;2022-10-31T08:28:31;37.33;;;15.97;;
4563;SDS011;2294;51.818;8.484;2022-10-31T08:30:58;39.90;;;17.87;;
4563;SDS011;2294;51.818;8.484;2022-10-31T08:33:25;43.40;;;16.63;;
4563;SDS011;2294;51.818;8.484;2022-10-31T08:35:52;36.53;;;17.80;;
4563;SDS011;2294;51.818;8.484;2022-10-31T08:38:20;31.27;;;16.50;;
4563;SDS011;2294;51.818;8.484;2022-10-31T08:40:47;38.17;;;18.23;;
4563;SDS011;2294;51.818;8.484;2022-10-31T08:43:15;35.57;;;17.77;;
4563;SDS011;2294;51.818;8.484;2022-10-31T08:45:43;46.50;;;19.10;;
4563;SDS011;2294;51.818;8.484;2022-10-31T08:48:13;39.70;;;18.60;;
4563;SDS011;2294;51.818;8.484;2022-10-31T08:50:42;37.27;;;18.00;;
4563;SDS011;2294;51.818;8.484;2022-10-31T08:53:10;41.07;;;20.50;;
4563;SDS011;2294;51.818;8.484;2022-10-31T08:55:40;36.80;;;19.73;;
4563;SDS011;2294;51.818;8.484;2022-10-31T08:58:09;36.50;;;19.37;;
4563;SDS011;2294;51.818;8.484;2022-10-31T09:00:37;40.50;;;19.87;;
4563;SDS011;2294;51.818;8.484;2022-10-31T09:03:05;39.27;;;21.47;;
4563;SDS011;2294;51.818;8.484;2022-10-31T09:05:33;37.80;;;21.07;;
4563;SDS011;2294;51.818;8.484;2022-10-31T09:08:00;46.00;;;23.13;;
4563;SDS011;2294;51.818;8.484;2022-10-31T09:10:28;40.37;;;20.43;;
4563;SDS011;2294;51.818;8.484;2022-10-31T09:12:57;47.00;;;21.60;;
4563;SDS011;2294;51.818;8.484;2022-10-31T09:15:25;42.57;;;22.77;;
4563;SDS011;2294;51.818;8.484;2022-10-31T09:17:52;38.93;;;22.80;;
4563;SDS011;2294;51.818;8.484;2022-10-31T09:20:20;43.07;;;23.60;;
4563;SDS011;2294;51.818;8.484;2022-10-31T09:22:47;45.90;;;22.10;;
4563;SDS011;2294;51.818;8.484;2022-10-31T09:25:14;54.43;;;23.17;;
4563;SDS011;2294;51.818;8.484;2022-10-31T09:27:40;46.60;;;23.47;;
4563;SDS011;2294;51.818;8.484;2022-10-31T09:30:09;43.70;;;23.00;;
4563;SDS011;2294;51.818;8.484;2022-10-31T09:32:36;46.00;;;23.33;;
4563;SDS011;2294;51.818;8.484;2022-10-31T09:35:04;51.83;;;23.90;;
4563;SDS011;2294;51.818;8.484;2022-10-31T09:37:31;48.73;;;24.37;;
4563;SDS011;2294;51.818;8.484;2022-10-31T09:39:58;50.33;;;24.97;;
4563;SDS011;2294;51.818;8.484;2022-10-31T09:42:49;54.50;;;25.40;;
4563;SDS011;2294;51.818;8.484;2022-10-31T09:45:25;62.33;;;24.90;;
4563;SDS011;2294;51.818;8.484;2022-10-31T09:48:00;53.90;;;25.77;;
4563;SDS011;2294;51.818;8.484;2022-10-31T09:50:37;51.00;;;27.20;;
4563;SDS011;2294;51.818;8.484;2022-10-31T09:53:08;57.60;;;26.10;;
4563;SDS011;2294;51.818;8.484;2022-10-31T09:55:40;59.43;;;26.50;;
4563;SDS011;2294;51.818;8.484;2022-10-31T09:58:12;56.07;;;27.50;;
4563;SDS011;2294;51.818;8.484;2022-10-31T10:00:44;65.40;;;27.87;;
4563;SDS011;2294;51.818;8.484;2022-10-31T10:03:15;61.73;;;26.87;;
4563;SDS011;2294;51.818;8.484;2022-10-31T10:05:54;53.47;;;25.70;;
4563;SDS011;2294;51.818;8.484;2022-10-31T10:08:28;57.90;;;28.33;;
4563;SDS011;2294;51.818;8.484;2022-10-31T10:10:59;51.93;;;26.80;;
4563;SDS011;2294;51.818;8.484;2022-10-31T10:13:44;57.90;;;26.70;;
4563;SDS011;2294;51.818;8.484;2022-10-31T10:16:38;55.60;;;27.77;;
4563;SDS011;2294;51.818;8.484;2022-10-31T10:19:21;54.07;;;25.57;;
4563;SDS011;2294;51.818;8.484;2022-10-31T10:22:06;50.10;;;24.90;;
4563;SDS011;2294;51.818;8.484;2022-10-31T10:24:43;49.33;;;23.87;;
4563;SDS011;2294;51.818;8.484;2022-10-31T10:27:27;57.73;;;25.33;;
4563;SDS011;2294;51.818;8.484;2022-10-31T10:30:07;47.33;;;24.50;;
4563;SDS011;2294;51.818;8.484;2022-10-31T10:32:42;45.13;;;23.17;;
4563;SDS011;2294;51.818;8.484;2022-10-31T10:35:16;56.03;;;25.67;;
4563;SDS011;2294;51.818;8.484;2022-10-31T10:37:48;59.77;;;24.20;;
4563;SDS011;2294;51.818;8.484;2022-10-31T10:40:18;53.33;;;24.00;;
4563;SDS011;2294;51.818;8.484;2022-10-31T10:42:50;48.40;;;23.73;;
4563;SDS011;2294;51.818;8.484;2022-10-31T10:45:41;43.67;;;21.90;;
4563;SDS011;2294;51.818;8.484;2022-10-31T10:48:36;45.80;;;22.80;;
4563;SDS011;2294;51.818;8.484;2022-10-31T10:51:10;46.70;;;22.40;;
4563;SDS011;2294;51.818;8.484;2022-10-31T10:53:47;35.47;;;20.83;;
4563;SDS011;2294;51.818;8.484;2022-10-31T10:56:40;52.83;;;21.47;;
4563;SDS011;2294;51.818;8.484;2022-10-31T10:59:16;50.13;;;21.93;;
4563;SDS011;2294;51.818;8.484;2022-10-31T11:01:47;42.47;;;21.20;;
4563;SDS011;2294;51.818;8.484;2022-10-31T11:04:28;62.67;;;20.93;;
4563;SDS011;2294;51.818;8.484;2022-10-31T11:07:01;39.83;;;19.00;;
4563;SDS011;2294;51.818;8.484;2022-10-31T11:09:32;44.47;;;20.60;;
4563;SDS011;2294;51.818;8.484;2022-10-31T11:12:00;39.90;;;20.83;;
4563;SDS011;2294;51.818;8.484;2022-10-31T11:14:35;37.73;;;20.07;;
4563;SDS011;2294;51.818;8.484;2022-10-31T11:17:09;43.50;;;20.90;;
4563;SDS011;2294;51.818;8.484;2022-10-31T11:19:44;46.73;;;20.70;;
4563;SDS011;2294;51.818;8.484;2022-10-31T11:22:14;39.90;;;19.73;;
4563;SDS011;2294;51.818;8.484;2022-10-31T11:24:42;48.93;;;20.47;;
4563;SDS011;2294;51.818;8.484;2022-10-31T11:27:14;43.97;;;21.17;;
4563;SDS011;2294;51.818;8.484;2022-10-31T11:29:42;46.57;;;21.50;;
4563;SDS011;2294;51.818;8.484;2022-10-31T11:32:16;49.03;;;20.93;;
4563;SDS011;2294;51.818;8.484;2022-10-31T11:34:47;52.07;;;23.10;;
4563;SDS011;2294;51.818;8.484;2022-10-31T11:37:18;36.00;;;20.70;;
4563;SDS011;2294;51.818;8.484;2022-10-31T11:39:49;42.10;;;19.77;;
4563;SDS011;2294;51.818;8.484;2022-10-31T11:42:19;44.47;;;20.97;;
4563;SDS011;2294;51.818;8.484;2022-10-31T11:44:48;35.90;;;21.67;;
4563;SDS011;2294;51.818;8.484;2022-10-31T11:47:17;49.30;;;22.77;;
4563;SDS011;2294;51.818;8.484;2022-10-31T11:49:51;38.67;;;20.47;;
4563;SDS011;2294;51.818;8.484;2022-10-31T11:52:18;41.50;;;21.30;;
4563;SDS011;2294;51.818;8.484;2022-10-31T11:54:48;42.37;;;21.47;;
4563;SDS011;2294;51.818;8.484;2022-10-31T11:57:22;37.63;;;20.07;;
4563;SDS011;2294;51.818;8.484;2022-10-31T11:59:55;31.50;;;18.27;;
4563;SDS011;2294;51.818;8.484;2022-10-31T12:02:23;42.07;;;20.40;;
4563;SDS011;2294;51.818;8.484;2022-10-31T12:04:55;37.20;;;18.13;;
4563;SDS011;2294;51.818;8.484;2022-10-31T12:07:27;28.10;;;16.00;;
4563;SDS011;2294;51.818;8.484;2022-10-31T12:09:54;31.43;;;16.00;;
4563;SDS011;2294;51.818;8.484;2022-10-31T12:12:31;26.07;;;16.70;;
4563;SDS011;2294;51.818;8.484;2022-10-31T12:15:16;30.33;;;14.07;;
4563;SDS011;2294;51.818;8.484;2022-10-31T12:18:03;30.20;;;16.37;;
4563;SDS011;2294;51.818;8.484;2022-10-31T12:20:48;30.70;;;14.70;;
4563;SDS011;2294;51.818;8.484;2022-10-31T12:23:24;30.80;;;13.27;;
4563;SDS011;2294;51.818;8.484;2022-10-31T12:26:03;25.97;;;11.97;;
4563;SDS011;2294;51.818;8.484;2022-10-31T12:31:36;21.03;;;10.50;;
4563;SDS011;2294;51.818;8.484;2022-10-31T12:37:13;22.37;;;10.80;;
4563;SDS011;2294;51.818;8.484;2022-10-31T12:39:51;19.07;;;9.83;;
4563;SDS011;2294;51.818;8.484;2022-10-31T12:42:28;21.20;;;10.30;;
4563;SDS011;2294;51.818;8.484;2022-10-31T12:45:12;20.50;;;8.93;;
4563;SDS011;2294;51.818;8.484;2022-10-31T12:47:58;27.93;;;9.73;;
4563;SDS011;2294;51.818;8.484;2022-10-31T12:50:47;24.53;;;9.87;;
4563;SDS011;2294;51.818;8.484;2022-10-31T12:53:29;13.30;;;8.20;;
4563;SDS011;2294;51.818;8.484;2022-10-31T12:56:08;21.87;;;8.30;;
4563;SDS011;2294;51.818;8.484;2022-10-31T12:58:49;13.47;;;8.10;;
4563;SDS011;2294;51.818;8.484;2022-10-31T13:01:21;13.17;;;7.40;;
4563;SDS011;2294;51.818;8.484;2022-10-31T13:03:54;23.57;;;9.10;;
4563;SDS011;2294;51.818;8.484;2022-10-31T13:06:28;21.03;;;8.60;;
4563;SDS011;2294;51.818;8.484;2022-10-31T13:09:00;18.03;;;8.50;;
4563;SDS011;2294;51.818;8.484;2022-10-31T13:11:30;16.90;;;8.53;;
4563;SDS011;2294;51.818;8.484;2022-10-31T13:14:02;15.67;;;7.90;;
4563;SDS011;2294;51.818;8.484;2022-10-31T13:16:35;16.37;;;8.37;;
4563;SDS011;2294;51.818;8.484;2022-10-31T13:19:06;21.83;;;8.70;;
4563;SDS011;2294;51.818;8.484;2022-10-31T13:21:41;18.00;;;8.20;;
4563;SDS011;2294;51.818;8.484;2022-10-31T13:24:18;12.97;;;8.17;;
4563;SDS011;2294;51.818;8.484;2022-10-31T13:26:49;18.07;;;8.17;;
4563;SDS011;2294;51.818;8.484;2022-10-31T13:29:18;17.07;;;8.60;;
4563;SDS011;2294;51.818;8.484;2022-10-31T13:31:49;14.17;;;7.70;;
4563;SDS011;2294;51.818;8.484;2022-10-31T13:34:23;17.90;;;8.27;;
4563;SDS011;2294;51.818;8.484;2022-10-31T13:36:55;18.67;;;7.90;;
4563;SDS011;2294;51.818;8.484;2022-10-31T13:39:34;13.80;;;7.90;;
4563;SDS011;2294;51.818;8.484;2022-10-31T13:42:14;17.67;;;7.97;;
4563;SDS011;2294;51.818;8.484;2022-10-31T13:44:48;24.70;;;9.20;;
4563;SDS011;2294;51.818;8.484;2022-10-31T13:47:23;15.63;;;8.70;;
4563;SDS011;2294;51.818;8.484;2022-10-31T13:49:51;17.27;;;8.43;;
4563;SDS011;2294;51.818;8.484;2022-10-31T13:52:30;19.47;;;9.00;;
4563;SDS011;2294;51.818;8.484;2022-10-31T13:54:58;14.10;;;9.70;;
4563;SDS011;2294;51.818;8.484;2022-10-31T13:57:34;16.83;;;9.60;;
4563;SDS011;2294;51.818;8.484;2022-10-31T14:00:06;16.43;;;10.13;;
4563;SDS011;2294;51.818;8.484;2022-10-31T14:02:49;30.27;;;10.07;;
4563;SDS011;2294;51.818;8.484;2022-10-31T14:05:21;22.53;;;9.67;;
4563;SDS011;2294;51.818;8.484;2022-10-31T14:07:51;19.70;;;10.13;;
4563;SDS011;2294;51.818;8.484;2022-10-31T14:10:22;18.47;;;9.73;;
4563;SDS011;2294;51.818;8.484;2022-10-31T14:12:53;22.00;;;11.17;;
4563;SDS011;2294;51.818;8.484;2022-10-31T14:15:29;34.77;;;10.53;;
4563;SDS011;2294;51.818;8.484;2022-10-31T14:17:57;16.83;;;10.00;;
4563;SDS011;2294;51.818;8.484;2022-10-31T14:20:33;21.63;;;11.27;;
4563;SDS011;2294;51.818;8.484;2022-10-31T14:23:10;35.93;;;11.03;;
4563;SDS011;2294;51.818;8.484;2022-10-31T14:25:40;16.77;;;9.57;;
4563;SDS011;2294;51.818;8.484;2022-10-31T14:28:19;20.27;;;9.40;;
4563;SDS011;2294;51.818;8.484;2022-10-31T14:30:53;20.87;;;11.03;;
4563;SDS011;2294;51.818;8.484;2022-10-31T14:33:22;22.10;;;10.70;;
4563;SDS011;2294;51.818;8.484;2022-10-31T14:35:52;19.70;;;10.27;;
4563;SDS011;2294;51.818;8.484;2022-10-31T14:38:29;21.20;;;10.23;;
4563;SDS011;2294;51.818;8.484;2022-10-31T14:41:18;17.30;;;10.00;;
4563;SDS011;2294;51.818;8.484;2022-10-31T14:47:01;17.13;;;9.40;;
4563;SDS011;2294;51.818;8.484;2022-10-31T14:52:32;17.80;;;10.60;;
4563;SDS011;2294;51.818;8.484;2022-10-31T14:55:03;27.37;;;11.60;;
4563;SDS011;2294;51.818;8.484;2022-10-31T14:57:34;20.67;;;9.80;;
4563;SDS011;2294;51.818;8.484;2022-10-31T15:00:04;23.40;;;11.97;;
4563;SDS011;2294;51.818;8.484;2022-10-31T15:02:34;27.20;;;11.60;;
4563;SDS011;2294;51.818;8.484;2022-10-31T15:05:07;22.30;;;11.10;;
4563;SDS011;2294;51.818;8.484;2022-10-31T15:07:35;22.50;;;11.20;;
4563;SDS011;2294;51.818;8.484;2022-10-31T15:10:05;22.97;;;10.03;;
4563;SDS011;2294;51.818;8.484;2022-10-31T15:12:47;24.57;;;12.03;;
4563;SDS011;2294;51.818;8.484;2022-10-31T15:15:14;20.10;;;11.20;;
4563;SDS011;2294;51.818;8.484;2022-10-31T15:17:45;22.53;;;10.23;;
4563;SDS011;2294;51.818;8.484;2022-10-31T15:20:16;19.87;;;11.37;;
4563;SDS011;2294;51.818;8.484;2022-10-31T15:22:45;24.07;;;12.00;;
4563;SDS011;2294;51.818;8.484;2022-10-31T15:25:14;24.83;;;11.23;;
4563;SDS011;2294;51.818;8.484;2022-10-31T15:27:46;19.73;;;10.43;;
4563;SDS011;2294;51.818;8.484;2022-10-31T15:30:16;25.10;;;11.50;;
4563;SDS011;2294;51.818;8.484;2022-10-31T15:32:44;18.30;;;9.77;;
4563;SDS011;2294;51.818;8.484;2022-10-31T15:35:18;25.70;;;11.30;;
4563;SDS011;2294;51.818;8.484;2022-10-31T15:37:47;23.27;;;10.57;;
4563;SDS011;2294;51.818;8.484;2022-10-31T15:40:14;19.47;;;10.40;;